Terminal Aerodrome Forecast
Issued by NWS Wilmington, NC

Home | Current Version | Previous Version | Text Only | Print | Product List | Glossary On
Versions: 1 2 3 4 5 6 7 8 9 10 11 12 13 14 15 16
000
FTUS42 KILM 271133
TAFILM
TAF
KILM 271133Z 2712/2812 00000KT P6SM SCT250
     FM271300 VRB03KT P6SM SCT080
     FM271700 19007KT P6SM SCT060
     FM280300 VRB03KT P6SM SCT250
     FM280600 VRB03KT 5SM BR BKN200=

USA.gov is the U.S. government's official web portal to all federal, state and local government web resources and services.